NCAR-RAP Real-Time Weather Data

Output produced by METARs form (23 February 2020  02:24 UTC)
found at http://weather.rap.ucar.edu/surface/
 
KRNO 230155Z 36009KT 10SM FEW140 FEW200 13/M11 A3002 RMK AO2 SLP152 T01281106
KRNO 230055Z 01009KT 10SM FEW090 FEW130 FEW190 15/M11 A3000 RMK AO2 SLP143 T01501106
KRNO 222355Z 02004KT 10SM FEW080 FEW130 FEW190 16/M11 A3000 RMK AO2 SLP142 T01611106 10161 20078 56009
KRNO 222255Z VRB03KT 10SM FEW080 FEW120 FEW200 14/M10 A3000 RMK AO2 SLP144 T01441100
KRNO 222155Z VRB03KT 10SM FEW080 FEW130 FEW200 14/M09 A3001 RMK AO2 SLP146 T01441094
KRNO 222055Z VRB04KT 10SM FEW080 FEW120 FEW200 14/M09 A3003 RMK AO2 SLP151 T01391094 58022
KRNO 221955Z VRB03KT 10SM FEW080 FEW120 FEW200 13/M09 A3006 RMK AO2 SLP162 T01331089
KRNO 221855Z 15003KT 10SM FEW095 FEW150 FEW210 11/M08 A3008 RMK AO2 SLP171 T01061083
KRNO 221755Z 00000KT 10SM FEW095 FEW130 FEW200 08/M08 A3010 RMK AO2 SLP181 T00781083 10083 20000 50005
KRNO 221655Z 00000KT 10SM FEW095 FEW200 05/M07 A3011 RMK AO2 SLP185 T00501072
KRNO 221555Z 20004KT 10SM SCT100 SCT180 02/M07 A3010 RMK AO2 SLP182 T00221072
KRNO 221455Z 19003KT 10SM BKN100 01/M07 A3008 RMK AO2 SLP179 T00111067 51005
KRNO 221355Z 00000KT 10SM BKN100 02/M07 A3008 RMK AO2 SLP173 T00171072
KRNO 221255Z 00000KT 10SM BKN095 01/M08 A3008 RMK AO2 SLP172 T00111078
KRNO 221155Z 00000KT 10SM FEW080 SCT100 00/M08 A3007 RMK AO2 SLP168 T00001083 10078 21006 56007
KRNO 221055Z 00000KT 10SM FEW080 FEW120 02/M08 A3007 RMK AO2 SLP166 T00171078
KRNO 220955Z 00000KT 10SM FEW120 03/M08 A3008 RMK AO2 SLP171 T00281083
KRNO 220855Z 28005KT 10SM FEW120 04/M08 A3009 RMK AO2 SLP176 T00391083 56008
KRNO 220755Z 28004KT 10SM SCT120 05/M08 A3010 RMK AO2 SLP177 T00501083 401611017
KRNO 220655Z 27003KT 10SM SCT130 07/M08 A3011 RMK AO2 SLP184 T00671083
KRNO 220555Z 00000KT 10SM BKN130 06/M08 A3012 RMK AO2 SLP192 T00611083 10150 20061 53006
KRNO 220455Z 22004KT 10SM BKN140 08/M08 A3011 RMK AO2 SLP190 T00831083
KRNO 220355Z 00000KT 10SM BKN140 BKN200 11/M10 A3010 RMK AO2 SLP186 T01061100
KRNO 220255Z 13006KT 10SM BKN200 11/M10 A3010 RMK AO2 SLP189 T01111100 53008
KRNO 220155Z 11004KT 10SM FEW100 BKN190 12/M10 A3009 RMK AO2 SLP183 T01221100
KRNO 220055Z 11009KT 10SM SCT110 SCT200 13/M09 A3008 RMK AO2 SLP178 T01331094
KRNO 212355Z 07013KT 10SM SCT100 SCT220 15/M09 A3007 RMK AO2 SLP172 T01501094 10161 20061 56020
KRNO 212255Z VRB04KT 10SM FEW080 FEW100 SCT200 SCT250 16/M09 A3008 RMK AO2 SLP173 T01561094
KRNO 212155Z VRB03KT 10SM FEW080 FEW150 SCT200 SCT250 15/M10 A3010 RMK AO2 SLP180 T01501100
KRNO 212055Z VRB03KT 10SM FEW080 FEW180 SCT220 13/M11 A3014 RMK AO2 SLP196 T01281106 58024
KRNO 211955Z VRB03KT 10SM FEW080 FEW180 FEW220 12/M11 A3018 RMK AO2 SLP210 T01171111
KRNO 211855Z 00000KT 10SM FEW070 FEW200 09/M10 A3021 RMK AO2 SLP223 T00891100
KRNO 211755Z 00000KT 10SM FEW200 SCT250 06/M09 A3022 RMK AO2 SLP229 T00611089 10061 21017 50000
KRNO 211655Z 00000KT 10SM FEW190 BKN240 03/M08 A3024 RMK AO2 SLP240 T00281083
KRNO 211555Z 00000KT 10SM FEW100 SCT190 BKN240 01/M09 A3024 RMK AO2 SLP239 T00061089
KRNO 211455Z 00000KT 10SM SCT180 BKN200 M01/M09 A3022 RMK AO2 SLP234 T10111094 51006
KRNO 211355Z 00000KT 10SM BKN200 M01/M09 A3022 RMK AO2 SLP231 T10111094
KRNO 211255Z 00000KT 10SM BKN200 M01/M09 A3021 RMK AO2 SLP226 T10111094
KRNO 211155Z 00000KT 10SM BKN200 M01/M10 A3020 RMK AO2 SLP220 T10111100 10044 21011 58006
KRNO 211055Z 00000KT 10SM SCT200 BKN240 00/M09 A3021 RMK AO2 SLP222 T00001094
KRNO 210955Z 00000KT 10SM FEW200 BKN240 01/M10 A3022 RMK AO2 SLP226 T00061100
KRNO 210855Z 00000KT 10SM BKN240 01/M10 A3022 RMK AO2 SLP228 T00111100 58004
KRNO 210755Z 28003KT 10SM BKN240 02/M10 A3023 RMK AO2 SLP233 T00221100 401391017
KRNO 210655Z 00000KT 10SM BKN240 03/M11 A3024 RMK AO2 SLP236 T00331106
KRNO 210555Z 00000KT 10SM BKN240 04/M12 A3024 RMK AO2 SLP237 T00441117 10133 20044 52012
KRNO 210455Z 00000KT 10SM BKN250 06/M12 A3023 RMK AO2 SLP236 T00561117
KRNO 210355Z 33005KT 10SM SCT250 07/M12 A3021 RMK AO2 SLP231 T00671117
KRNO 210255Z 34006KT 10SM BKN250 08/M12 A3020 RMK AO2 SLP226 T00831117 53010